| Date | Time | Temp. (oF) | Dew Point (oF) | Rel. Hum. (%) | Press. (in.) | Wind Dir. | Wind Speed (mph) | Hourly Rainfall (in.) |
|
|---|---|---|---|---|---|---|---|---|---|
| 1 | 02/18 | 00:00 | 30 | 23 | 76 | 29.60 | W | 7 | 0.00 |
| 2 | 02/17 | 23:00 | 29 | 25 | 85 | 29.61 | WNW | 4 | 0.00 |
| 3 | 02/17 | 22:00 | 28 | 26 | 93 | 29.61 | W | 7 | 0.00 |
| 4 | 02/17 | 21:00 | 29 | 26 | 89 | 29.62 | W | 8 | 0.00 |
| 5 | 02/17 | 20:00 | 30 | 23 | 78 | 29.62 | SSW | 4 | 0.00 |
| 6 | 02/17 | 19:00 | 31 | 21 | 67 | 29.61 | NNW | 7 | 0.00 |
| 7 | 02/17 | 18:00 | 32 | 20 | 63 | 29.60 | NW | 6 | 0.00 |
| 8 | 02/17 | 17:00 | 33 | 20 | 59 | 29.59 | NW | 5 | 0.00 |
| 9 | 02/17 | 16:00 | 34 | 20 | 58 | 29.58 | NW | 4 | 0.00 |
| 10 | 02/17 | 15:00 | 35 | 20 | 56 | 29.57 | WNW | 18 | 0.00 |
| 11 | 02/17 | 14:00 | 35 | 21 | 57 | 29.58 | NW | 14 | 0.00 |
| 12 | 02/17 | 13:00 | 35 | 20 | 56 | 29.59 | N | 13 | 0.00 |
| 13 | 02/17 | 12:00 | 33 | 20 | 60 | 29.63 | WNW | 11 | 0.00 |
| 14 | 02/17 | 11:00 | 32 | 20 | 62 | 29.66 | SSW | 6 | 0.00 |
| 15 | 02/17 | 10:00 | 31 | 19 | 63 | 29.67 | NNW | 9 | 0.00 |
| 16 | 02/17 | 09:00 | 30 | 19 | 65 | 29.67 | WSW | 8 | 0.00 |
| 17 | 02/17 | 08:00 | 27 | 17 | 68 | 29.68 | WNW | 3 | 0.00 |
| 18 | 02/17 | 07:00 | 27 | 18 | 70 | 29.68 | W | 3 | 0.00 |
| 19 | 02/17 | 06:00 | 27 | 18 | 71 | 29.67 | WSW | 3 | 0.00 |
| 20 | 02/17 | 05:00 | 27 | 19 | 74 | 29.67 | WSW | 4 | 0.00 |
| 21 | 02/17 | 04:00 | 26 | 20 | 81 | 29.66 | NW | 1 | 0.00 |
| 22 | 02/17 | 03:00 | 24 | 19 | 82 | 29.65 | SW | 3 | 0.00 |
| 23 | 02/17 | 02:00 | 23 | 17 | 80 | 29.66 | W | 1 | 0.00 |
| 24 | 02/17 | 01:00 | 24 | 18 | 78 | 29.66 | W | 4 | 0.00 |